Time;durP1;ratioP1;P1;durP2;ratioP2;P2;SDS_P1;SDS_P2;PMS_P1;PMS_P2;Temp;Humidity;BMP_temperature;BMP_pressure;BME280_temperature;BME280_humidity;BME280_pressure;Samples;Min_cycle;Max_cycle;Signal;HPM_P1;HPM_P2
2022/05/17 00:02:01;;;;;;;6.00;2.10;;;18.20;94.80;;;;;;7339361;19;108174;-84
2022/05/17 00:04:28;;;;;;;5.10;1.63;;;18.10;94.90;;;;;;7336308;19;108028;-81
2022/05/17 00:06:55;;;;;;;9.50;2.05;;;18.10;94.90;;;;;;7337611;19;108454;-81
2022/05/17 00:09:22;;;;;;;8.15;1.85;;;18.00;95.00;;;;;;7343703;19;107385;-83
2022/05/17 00:11:49;;;;;;;6.45;1.98;;;18.00;95.00;;;;;;7341328;19;109237;-81
2022/05/17 00:14:17;;;;;;;9.13;1.80;;;17.90;95.20;;;;;;7337174;19;108479;-81
2022/05/17 00:16:45;;;;;;;10.30;2.40;;;17.90;95.10;;;;;;7338623;19;108448;-83
2022/05/17 00:19:16;;;;;;;5.25;1.80;;;17.80;95.40;;;;;;7340939;19;108623;-84
2022/05/17 00:21:44;;;;;;;7.60;2.05;;;17.80;95.40;;;;;;7339983;19;108007;-83
2022/05/17 00:24:13;;;;;;;4.93;1.90;;;17.80;95.30;;;;;;7338374;19;108381;-82
2022/05/17 00:26:40;;;;;;;4.68;1.95;;;17.80;95.40;;;;;;7340000;19;109001;-83
2022/05/17 00:29:08;;;;;;;5.32;1.98;;;17.70;95.50;;;;;;7345318;19;108282;-83
2022/05/17 00:31:35;;;;;;;8.82;2.33;;;17.70;95.30;;;;;;7340534;19;108795;-83
2022/05/17 00:34:03;;;;;;;6.05;2.10;;;17.60;95.50;;;;;;7337814;19;109836;-83
2022/05/17 00:36:31;;;;;;;7.32;1.98;;;17.60;95.60;;;;;;7338270;19;108651;-83
2022/05/17 00:38:59;;;;;;;12.00;2.55;;;17.60;95.80;;;;;;7337579;19;109130;-83
2022/05/17 00:41:26;;;;;;;11.95;2.80;;;17.60;96.10;;;;;;7334473;19;108310;-83
2022/05/17 00:46:44;;;;;;;9.07;2.30;;;17.50;96.30;;;;;;7339876;19;109059;-83
2022/05/17 00:49:17;;;;;;;8.93;2.35;;;17.50;96.40;;;;;;7337460;19;107722;-83
2022/05/17 00:51:44;;;;;;;6.40;2.38;;;17.40;96.50;;;;;;7341802;19;109427;-84
2022/05/17 00:54:15;;;;;;;7.85;2.17;;;17.40;96.80;;;;;;7346150;19;107250;-84
2022/05/17 00:57:26;;;;;;;8.07;2.65;;;17.40;97.00;;;;;;7346542;19;107865;-83
2022/05/17 00:59:54;;;;;;;10.10;2.53;;;17.40;97.00;;;;;;7342653;19;108448;-84
2022/05/17 01:02:21;;;;;;;9.88;2.75;;;17.40;97.20;;;;;;7341340;19;108033;-83
2022/05/17 01:04:48;;;;;;;8.60;2.70;;;17.40;97.40;;;;;;7339394;19;107495;-83
2022/05/17 01:07:20;;;;;;;7.53;2.83;;;17.30;97.60;;;;;;7341172;19;108144;-84
2022/05/17 01:09:47;;;;;;;12.57;3.03;;;17.30;97.70;;;;;;7342791;19;107335;-81
2022/05/17 01:12:14;;;;;;;6.60;2.75;;;17.20;98.40;;;;;;7343797;19;108541;-83
2022/05/17 01:14:57;;;;;;;10.23;2.70;;;17.10;99.00;;;;;;7347312;19;108191;-81
2022/05/17 01:17:26;;;;;;;6.82;2.50;;;16.90;99.10;;;;;;7339999;19;108347;-82
2022/05/17 01:19:53;;;;;;;12.02;2.80;;;17.00;98.80;;;;;;7343582;19;108966;-83
2022/05/17 01:22:22;;;;;;;6.80;2.50;;;17.00;98.70;;;;;;7341182;19;108573;-83
2022/05/17 01:24:50;;;;;;;9.30;2.60;;;17.20;98.40;;;;;;7340416;19;107524;-83
2022/05/17 01:27:29;;;;;;;9.60;2.95;;;17.20;98.30;;;;;;7341050;19;109384;-83
2022/05/17 01:29:56;;;;;;;10.20;2.67;;;17.30;98.20;;;;;;7342350;19;108124;-84
2022/05/17 01:32:23;;;;;;;8.10;2.20;;;17.30;98.50;;;;;;7339089;19;108700;-83
2022/05/17 01:34:51;;;;;;;10.63;2.88;;;17.30;98.30;;;;;;7343385;19;108131;-83
2022/05/17 01:37:19;;;;;;;12.95;2.30;;;17.30;98.30;;;;;;7348848;19;108315;-82
2022/05/17 01:39:46;;;;;;;11.10;2.83;;;17.30;98.30;;;;;;7345801;19;108934;-84
2022/05/17 01:42:14;;;;;;;5.78;1.98;;;17.40;98.30;;;;;;7341024;19;110049;-83
2022/05/17 01:44:43;;;;;;;12.02;2.58;;;17.40;98.20;;;;;;7343604;19;107891;-84
2022/05/17 01:47:12;;;;;;;7.15;2.38;;;17.40;98.20;;;;;;7345355;19;107814;-84
2022/05/17 01:49:39;;;;;;;7.50;2.13;;;17.40;98.20;;;;;;7347199;19;108058;-83
2022/05/17 01:52:06;;;;;;;10.90;2.58;;;17.40;98.20;;;;;;7340865;19;108830;-83
2022/05/17 01:54:33;;;;;;;7.18;2.65;;;17.40;98.40;;;;;;7344450;19;109142;-82
2022/05/17 01:57:01;;;;;;;5.68;2.22;;;17.40;98.10;;;;;;7343377;19;107532;-83
2022/05/17 01:59:28;;;;;;;10.20;2.38;;;17.40;98.10;;;;;;7349047;19;107199;-84
2022/05/17 02:01:55;;;;;;;14.32;3.00;;;17.40;98.50;;;;;;7343088;19;110085;-84
2022/05/17 02:04:23;;;;;;;7.90;2.40;;;17.30;99.00;;;;;;7339101;19;107658;-83
2022/05/17 02:06:50;;;;;;;5.57;2.50;;;17.30;99.20;;;;;;7343122;19;108492;-83
2022/05/17 02:09:17;;;;;;;5.25;2.13;;;17.20;99.30;;;;;;7342620;19;107170;-83
2022/05/17 02:11:44;;;;;;;6.38;2.30;;;17.20;99.10;;;;;;7342752;19;107696;-83
2022/05/17 02:14:11;;;;;;;7.00;2.22;;;17.30;99.00;;;;;;7342298;19;109212;-83
2022/05/17 02:16:39;;;;;;;5.85;2.13;;;17.20;99.00;;;;;;7342547;19;108543;-83
2022/05/17 02:19:07;;;;;;;5.78;1.90;;;17.20;99.00;;;;;;7341538;19;107606;-83
2022/05/17 02:21:36;;;;;;;6.80;2.10;;;17.20;99.00;;;;;;7347197;19;109672;-83
2022/05/17 02:24:04;;;;;;;11.55;2.72;;;17.20;98.90;;;;;;7340899;19;108396;-83
2022/05/17 02:26:32;;;;;;;7.38;1.90;;;17.20;98.80;;;;;;7344353;19;108726;-83
2022/05/17 02:28:59;;;;;;;5.25;2.33;;;17.20;98.80;;;;;;7343216;19;107564;-83
2022/05/17 02:31:37;;;;;;;9.00;2.60;;;17.20;98.80;;;;;;7344700;19;107291;-82
2022/05/17 02:34:04;;;;;;;6.47;2.10;;;17.20;98.80;;;;;;7341253;19;107900;-84
2022/05/17 02:36:32;;;;;;;4.38;1.90;;;17.20;98.90;;;;;;7340948;19;110024;-84
2022/05/17 02:38:59;;;;;;;7.55;2.22;;;17.20;99.10;;;;;;7344158;19;108517;-83
2022/05/17 02:41:26;;;;;;;6.90;2.50;;;17.10;99.10;;;;;;7346852;19;108148;-84
2022/05/17 02:43:53;;;;;;;10.13;2.63;;;17.10;99.20;;;;;;7342567;19;108734;-84
2022/05/17 02:46:20;;;;;;;8.15;2.40;;;17.10;99.50;;;;;;7343268;19;108173;-84
2022/05/17 02:48:47;;;;;;;6.50;2.60;;;17.00;99.40;;;;;;7341908;19;107336;-84
2022/05/17 02:51:17;;;;;;;13.57;3.08;;;17.00;99.40;;;;;;7342038;19;108009;-84
2022/05/17 02:53:45;;;;;;;5.47;2.22;;;17.10;99.70;;;;;;7342919;19;108579;-84
2022/05/17 02:56:12;;;;;;;6.20;2.20;;;17.00;99.50;;;;;;7343899;19;108414;-84
2022/05/17 02:58:40;;;;;;;9.13;2.53;;;17.00;99.40;;;;;;7344018;19;109268;-84
2022/05/17 03:01:07;;;;;;;15.35;3.30;;;17.00;99.50;;;;;;7342160;19;108098;-83
2022/05/17 03:03:40;;;;;;;7.45;2.67;;;17.00;99.60;;;;;;7344486;19;107923;-85
2022/05/17 03:06:09;;;;;;;5.78;2.72;;;17.00;99.50;;;;;;7335202;19;111238;-80
2022/05/17 03:08:37;;;;;;;8.82;2.50;;;17.00;99.90;;;;;;7342215;19;108069;-80
2022/05/17 03:11:07;;;;;;;8.63;2.60;;;16.90;99.90;;;;;;7341095;19;108221;-80
2022/05/17 03:13:34;;;;;;;8.52;2.88;;;16.80;99.90;;;;;;7341288;19;107856;-79
2022/05/17 03:16:02;;;;;;;6.75;2.60;;;16.70;99.90;;;;;;7338629;19;111216;-79
2022/05/17 03:18:36;;;;;;;8.00;2.40;;;16.60;99.90;;;;;;7341151;19;107154;-79
2022/05/17 03:21:03;;;;;;;9.82;2.72;;;16.50;99.90;;;;;;7341210;19;108922;-80
2022/05/17 03:23:30;;;;;;;7.63;2.67;;;16.50;99.90;;;;;;7342092;19;108371;-79
2022/05/17 03:25:58;;;;;;;14.35;2.83;;;16.50;99.90;;;;;;7346651;19;108495;-82
2022/05/17 03:28:25;;;;;;;7.53;2.25;;;16.50;99.90;;;;;;7340135;19;107273;-81
2022/05/17 03:30:52;;;;;;;7.50;3.03;;;16.50;99.90;;;;;;7341971;19;107635;-82
2022/05/17 03:33:19;;;;;;;10.00;2.95;;;16.50;99.90;;;;;;7341490;19;109829;-79
2022/05/17 03:35:46;;;;;;;8.20;3.03;;;16.60;99.90;;;;;;7342381;19;108993;-80
2022/05/17 03:38:13;;;;;;;6.40;2.58;;;16.60;99.90;;;;;;7342050;19;108318;-79
2022/05/17 03:40:40;;;;;;;6.88;2.95;;;16.60;99.90;;;;;;7339413;19;108941;-79
2022/05/17 03:43:07;;;;;;;7.75;3.13;;;16.70;99.90;;;;;;7341302;19;108198;-81
2022/05/17 03:45:34;;;;;;;6.25;3.03;;;16.70;99.90;;;;;;7338210;19;108019;-81
2022/05/17 03:48:01;;;;;;;10.05;3.13;;;16.70;99.90;;;;;;7341441;19;108950;-82
2022/05/17 03:50:28;;;;;;;10.15;3.05;;;16.70;99.90;;;;;;7340618;19;108254;-80
2022/05/17 03:52:55;;;;;;;6.30;2.80;;;16.60;99.90;;;;;;7341759;19;109790;-80
2022/05/17 03:55:22;;;;;;;8.63;2.92;;;16.60;99.90;;;;;;7341501;19;108091;-80
2022/05/17 03:57:49;;;;;;;7.18;3.15;;;16.60;99.90;;;;;;7341124;19;107375;-79
2022/05/17 04:00:17;;;;;;;8.35;3.05;;;16.60;99.90;;;;;;7342630;19;109134;-82
2022/05/17 04:02:44;;;;;;;8.23;2.90;;;16.50;99.90;;;;;;7340852;19;108481;-82
2022/05/17 04:05:11;;;;;;;6.53;3.38;;;16.50;99.90;;;;;;7341480;19;108222;-80
2022/05/17 04:07:38;;;;;;;14.18;3.85;;;16.40;99.90;;;;;;7339902;19;107847;-80
2022/05/17 04:10:07;;;;;;;16.35;3.30;;;16.40;99.90;;;;;;7345902;19;108154;-80
2022/05/17 04:12:35;;;;;;;8.65;2.88;;;16.50;99.90;;;;;;7338799;19;109768;-80
2022/05/17 04:15:04;;;;;;;9.18;2.50;;;16.50;99.90;;;;;;7340462;19;107133;-81
2022/05/17 04:17:31;;;;;;;8.98;2.95;;;16.60;99.90;;;;;;7339564;19;108156;-82
2022/05/17 04:19:59;;;;;;;33.60;3.45;;;16.50;99.90;;;;;;7340430;19;109017;-82
2022/05/17 04:22:27;;;;;;;37.65;3.78;;;16.60;99.90;;;;;;7341089;19;107939;-82
2022/05/17 04:24:55;;;;;;;9.90;3.08;;;16.60;99.90;;;;;;7338234;19;108394;-82
2022/05/17 04:27:23;;;;;;;8.50;2.40;;;16.70;99.90;;;;;;7335941;19;108963;-82
2022/05/17 04:29:51;;;;;;;6.05;2.20;;;16.80;99.90;;;;;;7340587;19;107851;-81
2022/05/17 04:32:18;;;;;;;8.05;2.38;;;16.90;99.90;;;;;;7345610;19;108147;-82
2022/05/17 04:34:45;;;;;;;7.43;2.53;;;17.00;99.90;;;;;;7340334;19;107994;-79
2022/05/17 04:37:12;;;;;;;8.52;2.40;;;17.00;99.90;;;;;;7340550;19;108513;-80
2022/05/17 04:39:39;;;;;;;4.97;2.00;;;17.10;99.90;;;;;;7339079;19;109311;-80
2022/05/17 04:42:07;;;;;;;17.38;2.78;;;17.10;99.90;;;;;;7340590;19;107950;-80
2022/05/17 04:44:34;;;;;;;8.85;2.70;;;17.10;99.90;;;;;;7339239;19;107479;-80
2022/05/17 04:47:01;;;;;;;6.80;2.60;;;17.10;99.90;;;;;;7337720;19;109194;-80
2022/05/17 04:49:29;;;;;;;7.72;2.70;;;17.10;99.90;;;;;;7338953;19;108289;-80
2022/05/17 04:51:56;;;;;;;7.57;2.45;;;17.10;99.90;;;;;;7342354;19;107737;-80
2022/05/17 04:54:24;;;;;;;10.50;2.83;;;17.20;99.90;;;;;;7338183;19;108295;-80
2022/05/17 04:56:50;;;;;;;7.32;2.95;;;17.20;99.90;;;;;;7339296;19;107629;-80
2022/05/17 04:59:22;;;;;;;6.68;2.97;;;17.20;99.90;;;;;;7338073;19;109297;-80
2022/05/17 05:01:49;;;;;;;11.70;3.10;;;17.20;99.90;;;;;;7336217;19;108664;-81
2022/05/17 05:04:19;;;;;;;6.40;2.42;;;17.20;99.90;;;;;;7338886;19;108202;-81
2022/05/17 05:06:47;;;;;;;11.27;2.90;;;17.20;99.90;;;;;;7337758;19;109296;-81
2022/05/17 05:09:14;;;;;;;5.22;2.30;;;17.30;99.90;;;;;;7339183;19;110807;-82
2022/05/17 05:11:41;;;;;;;7.90;2.75;;;17.30;99.90;;;;;;7338166;19;108181;-82
2022/05/17 05:14:09;;;;;;;10.43;2.85;;;17.30;99.90;;;;;;7343989;19;108902;-82
2022/05/17 05:16:39;;;;;;;7.00;3.08;;;17.20;99.90;;;;;;7337900;19;108380;-82
2022/05/17 05:19:06;;;;;;;9.23;2.55;;;17.20;99.90;;;;;;7338198;19;112385;-80
2022/05/17 05:21:33;;;;;;;10.70;2.92;;;17.10;99.90;;;;;;7338882;19;107795;-80
2022/05/17 05:24:04;;;;;;;13.35;2.75;;;17.10;99.90;;;;;;7337559;19;108659;-80
2022/05/17 05:26:33;;;;;;;8.13;3.03;;;17.10;99.90;;;;;;7336648;19;108246;-79
2022/05/17 05:29:00;;;;;;;11.65;3.25;;;17.10;99.90;;;;;;7335774;19;108175;-80
2022/05/17 05:31:27;;;;;;;14.13;3.25;;;17.10;99.90;;;;;;7338434;19;109145;-84
2022/05/17 05:33:55;;;;;;;8.43;3.20;;;17.10;99.90;;;;;;7339143;19;109233;-81
2022/05/17 05:36:22;;;;;;;7.88;3.28;;;17.20;99.90;;;;;;7343113;19;107435;-81
2022/05/17 05:38:50;;;;;;;14.73;3.40;;;17.20;99.90;;;;;;7341051;19;108476;-81
2022/05/17 05:41:17;;;;;;;9.98;2.90;;;17.20;99.90;;;;;;7345369;19;107658;-80
2022/05/17 05:43:44;;;;;;;11.65;3.08;;;17.20;99.90;;;;;;7344484;19;108654;-80
2022/05/17 05:46:11;;;;;;;7.35;2.88;;;17.20;99.90;;;;;;7341728;19;111449;-81
2022/05/17 05:48:38;;;;;;;10.00;3.17;;;17.20;99.90;;;;;;7346057;19;108822;-81
2022/05/17 05:51:05;;;;;;;8.85;3.30;;;17.30;99.90;;;;;;7344944;19;108026;-80
2022/05/17 05:53:32;;;;;;;8.65;3.22;;;17.20;99.90;;;;;;7342586;19;108953;-82
2022/05/17 05:56:02;;;;;;;9.68;3.83;;;17.20;99.90;;;;;;7343099;19;108253;-82
2022/05/17 05:58:31;;;;;;;15.98;4.20;;;17.20;99.90;;;;;;7348360;19;107471;-82
2022/05/17 06:00:58;;;;;;;14.95;4.78;;;17.10;99.90;;;;;;7344994;19;107933;-83
2022/05/17 06:03:26;;;;;;;10.65;4.18;;;17.10;99.90;;;;;;7342316;19;108411;-80
2022/05/17 06:05:54;;;;;;;13.18;4.55;;;17.10;99.90;;;;;;7344438;19;109251;-82
2022/05/17 06:08:21;;;;;;;12.25;4.78;;;17.10;99.90;;;;;;7341346;19;108176;-82
2022/05/17 06:10:48;;;;;;;14.23;5.05;;;17.10;99.90;;;;;;7332551;19;108558;-83
2022/05/17 06:13:17;;;;;;;11.82;5.22;;;17.20;99.90;;;;;;7332777;19;109601;-80
2022/05/17 06:15:45;;;;;;;23.75;5.40;;;17.20;99.90;;;;;;7333764;19;108224;-82
2022/05/17 06:18:13;;;;;;;13.55;5.22;;;17.30;99.90;;;;;;7331384;19;108247;-87
2022/05/17 06:20:40;;;;;;;10.05;4.43;;;17.30;99.90;;;;;;7337888;19;107902;-83
2022/05/17 06:23:08;;;;;;;7.90;4.47;;;17.40;99.90;;;;;;7333801;19;108919;-83
2022/05/17 06:25:35;;;;;;;17.88;5.40;;;17.50;99.90;;;;;;7341011;19;110618;-83
2022/05/17 06:28:03;;;;;;;39.63;4.65;;;17.50;99.90;;;;;;7343991;19;108262;-83
2022/05/17 06:30:30;;;;;;;12.85;4.22;;;17.50;99.90;;;;;;7344162;19;107642;-84
2022/05/17 06:32:57;;;;;;;10.10;3.88;;;17.60;99.90;;;;;;7343287;19;108893;-83
2022/05/17 06:35:24;;;;;;;7.72;3.85;;;17.60;99.90;;;;;;7343095;19;110224;-83
2022/05/17 06:37:52;;;;;;;13.18;4.00;;;17.60;99.90;;;;;;7344906;19;108985;-82
2022/05/17 06:40:19;;;;;;;13.73;3.75;;;17.70;99.90;;;;;;7341758;19;109103;-81
2022/05/17 06:42:47;;;;;;;22.83;3.65;;;17.70;99.90;;;;;;7347966;19;107315;-83
2022/05/17 06:45:14;;;;;;;23.60;3.75;;;17.80;99.90;;;;;;7343145;19;108694;-83
2022/05/17 06:47:42;;;;;;;15.75;3.50;;;17.90;99.90;;;;;;7343113;19;108338;-83
2022/05/17 06:50:10;;;;;;;20.67;3.38;;;18.00;99.90;;;;;;7342237;19;108229;-83
2022/05/17 06:52:38;;;;;;;17.85;3.78;;;18.00;99.90;;;;;;7343409;19;109474;-81
2022/05/17 06:55:06;;;;;;;11.15;3.58;;;18.00;99.90;;;;;;7343061;19;107868;-81
2022/05/17 06:57:33;;;;;;;13.38;3.58;;;18.00;99.90;;;;;;7341663;19;109372;-82
2022/05/17 07:00:01;;;;;;;9.98;3.50;;;18.00;99.90;;;;;;7342998;19;112734;-82
2022/05/17 07:02:28;;;;;;;12.82;3.70;;;18.00;99.90;;;;;;7348022;19;107925;-82
2022/05/17 07:04:55;;;;;;;6.90;3.95;;;18.00;99.90;;;;;;7344033;19;109393;-83
2022/05/17 07:07:22;;;;;;;8.43;3.88;;;18.10;99.90;;;;;;7341577;19;107920;-82
2022/05/17 07:15:20;;;;;;;15.30;3.75;;;18.10;99.90;;;;;;7342758;19;108165;-82
2022/05/17 07:17:48;;;;;;;9.23;3.80;;;18.10;99.90;;;;;;7340472;19;108298;-83
2022/05/17 07:20:21;;;;;;;9.82;4.40;;;18.10;99.90;;;;;;7344245;19;109659;-80
2022/05/17 07:22:48;;;;;;;6.40;3.50;;;18.20;99.90;;;;;;7340169;19;109586;-80
2022/05/17 07:25:15;;;;;;;9.73;4.07;;;18.30;99.90;;;;;;7348231;19;108190;-82
2022/05/17 07:27:43;;;;;;;13.32;4.20;;;18.40;99.90;;;;;;7341817;19;107630;-80
2022/05/17 07:30:11;;;;;;;15.02;4.03;;;18.50;99.90;;;;;;7342752;19;112225;-80
2022/05/17 07:32:38;;;;;;;13.50;4.35;;;18.50;99.90;;;;;;7338940;19;108948;-84
2022/05/17 07:35:07;;;;;;;18.90;4.75;;;18.60;99.90;;;;;;7342590;19;111520;-81
2022/05/17 07:37:37;;;;;;;12.95;4.32;;;18.60;99.90;;;;;;7340028;19;108386;-81
2022/05/17 07:40:05;;;;;;;31.58;5.43;;;18.70;99.90;;;;;;7343204;19;109104;-81
2022/05/17 07:42:32;;;;;;;28.88;5.15;;;18.70;99.90;;;;;;7343779;19;107886;-81
2022/05/17 07:44:59;;;;;;;17.40;4.60;;;18.70;99.90;;;;;;7340358;19;108239;-82
2022/05/17 07:47:26;;;;;;;23.73;4.57;;;18.70;99.90;;;;;;7341451;19;107934;-84
2022/05/17 07:49:53;;;;;;;24.88;4.15;;;18.70;99.90;;;;;;7333947;19;108630;-81
2022/05/17 07:52:20;;;;;;;30.02;4.40;;;18.70;99.90;;;;;;7332447;19;109481;-81
2022/05/17 07:54:48;;;;;;;31.45;4.50;;;18.80;99.90;;;;;;7329487;19;107690;-82
2022/05/17 07:57:15;;;;;;;15.23;4.20;;;18.70;99.90;;;;;;7328291;19;108240;-83
2022/05/17 07:59:43;;;;;;;14.05;4.55;;;18.70;99.90;;;;;;7327643;19;108757;-83
2022/05/17 08:02:11;;;;;;;19.38;5.10;;;18.60;99.90;;;;;;7328678;19;107920;-84
2022/05/17 08:04:38;;;;;;;19.98;5.10;;;18.60;99.90;;;;;;7341844;19;107881;-81
2022/05/17 08:07:05;;;;;;;16.85;4.80;;;18.60;99.90;;;;;;7341375;19;109098;-82
2022/05/17 08:09:33;;;;;;;9.55;4.82;;;18.60;99.90;;;;;;7348846;19;107901;-80
2022/05/17 08:12:00;;;;;;;14.55;4.68;;;18.60;99.90;;;;;;7339583;19;109132;-81
2022/05/17 08:14:28;;;;;;;27.80;4.97;;;18.60;99.90;;;;;;7342000;19;108417;-80
2022/05/17 08:16:55;;;;;;;29.33;5.32;;;18.70;99.90;;;;;;7340667;19;108404;-80
2022/05/17 08:19:22;;;;;;;19.77;5.15;;;18.80;99.90;;;;;;7340722;19;111350;-80
2022/05/17 08:21:49;;;;;;;26.58;5.60;;;18.90;99.90;;;;;;7342203;19;108908;-80
2022/05/17 08:24:16;;;;;;;29.13;4.60;;;18.90;99.90;;;;;;7341489;19;108263;-80
2022/05/17 08:29:29;;;;;;;17.52;5.28;;;19.10;99.90;;;;;;7341351;19;108858;-81
2022/05/17 08:35:05;;;;;;;12.73;4.93;;;19.40;99.90;;;;;;7338885;19;110325;-81
2022/05/17 08:37:32;;;;;;;15.63;4.90;;;19.50;99.90;;;;;;7339238;19;108686;-81
2022/05/17 08:39:59;;;;;;;10.82;4.70;;;19.50;99.90;;;;;;7338555;19;109373;-80
2022/05/17 08:42:36;;;;;;;16.08;5.50;;;19.60;99.90;;;;;;7337841;19;108721;-81
2022/05/17 08:45:13;;;;;;;18.75;5.22;;;19.70;99.90;;;;;;7339467;19;108114;-80
2022/05/17 08:47:52;;;;;;;19.83;5.03;;;19.90;99.90;;;;;;7336007;19;107934;-81
2022/05/17 08:50:34;;;;;;;16.52;4.88;;;20.00;99.90;;;;;;7339273;19;107647;-80
2022/05/17 08:53:02;;;;;;;18.90;4.88;;;20.00;99.90;;;;;;7342961;19;108874;-81
2022/05/17 08:55:36;;;;;;;15.77;5.22;;;20.10;99.90;;;;;;7338854;19;107507;-81
2022/05/17 08:58:27;;;;;;;17.40;4.78;;;20.20;99.90;;;;;;7338608;19;108304;-81
2022/05/17 09:01:19;;;;;;;21.75;5.10;;;20.30;99.90;;;;;;7338107;19;109370;-81
2022/05/17 09:04:07;;;;;;;22.33;5.32;;;20.40;99.90;;;;;;7338014;19;109618;-81
2022/05/17 09:06:40;;;;;;;15.10;4.63;;;20.30;99.90;;;;;;7339404;19;110753;-81
2022/05/17 09:09:31;;;;;;;20.75;4.70;;;20.30;99.90;;;;;;7340221;19;108888;-81
2022/05/17 09:12:08;;;;;;;16.17;5.03;;;20.40;99.90;;;;;;7340959;19;108255;-81
2022/05/17 09:14:41;;;;;;;7.88;4.53;;;20.40;99.90;;;;;;7346600;19;107231;-81
2022/05/17 09:17:12;;;;;;;11.07;4.55;;;20.40;99.90;;;;;;7352233;19;109463;-80
2022/05/17 09:19:40;;;;;;;12.57;4.95;;;20.50;99.90;;;;;;7348553;19;107575;-81
2022/05/17 09:22:07;;;;;;;19.58;5.38;;;20.60;99.90;;;;;;7346112;19;108829;-81
2022/05/17 09:24:42;;;;;;;10.73;4.75;;;20.70;99.90;;;;;;7347337;19;108619;-81
2022/05/17 09:27:21;;;;;;;20.40;5.75;;;20.90;99.90;;;;;;7346091;19;107342;-80
2022/05/17 09:29:53;;;;;;;16.15;4.20;;;21.00;99.90;;;;;;7348136;19;108924;-81
2022/05/17 09:32:30;;;;;;;20.63;4.95;;;21.10;99.90;;;;;;7345745;19;108080;-81
2022/05/17 09:35:09;;;;;;;15.48;4.70;;;21.20;99.90;;;;;;7347936;19;107259;-81
2022/05/17 09:37:41;;;;;;;18.63;4.95;;;21.20;99.90;;;;;;7348539;19;108894;-81
2022/05/17 09:40:12;;;;;;;8.60;4.47;;;21.30;99.90;;;;;;7351121;19;108367;-81
2022/05/17 09:42:50;;;;;;;11.65;4.60;;;21.40;99.90;;;;;;7348667;19;108957;-82
2022/05/17 09:45:20;;;;;;;9.38;4.30;;;21.50;99.90;;;;;;7348038;19;108548;-81
2022/05/17 09:47:59;;;;;;;11.02;3.92;;;21.60;99.90;;;;;;7345412;19;111423;-81
2022/05/17 09:53:15;;;;;;;9.13;3.60;;;22.00;99.90;;;;;;7347149;19;108438;-81
2022/05/17 09:55:48;;;;;;;12.50;3.90;;;22.20;99.90;;;;;;7347537;19;106935;-81
2022/05/17 09:58:33;;;;;;;8.38;3.55;;;22.40;99.90;;;;;;7345742;19;109351;-81
2022/05/17 10:01:16;;;;;;;9.65;3.35;;;22.60;99.90;;;;;;7343385;19;107251;-82
2022/05/17 10:04:10;;;;;;;10.88;3.40;;;22.80;99.90;;;;;;7352009;19;108292;-81
2022/05/17 10:06:41;;;;;;;10.45;3.42;;;22.90;99.90;;;;;;7346858;19;109316;-82
2022/05/17 10:09:25;;;;;;;11.10;3.50;;;23.10;99.90;;;;;;7346578;19;108276;-82
2022/05/17 10:11:59;;;;;;;8.38;3.38;;;23.30;99.90;;;;;;7347779;19;109127;-81
2022/05/17 10:14:31;;;;;;;6.90;3.08;;;23.40;99.90;;;;;;7346857;19;108759;-82
2022/05/17 10:17:07;;;;;;;8.02;2.72;;;23.50;99.90;;;;;;7346029;19;108392;-82
2022/05/17 10:19:50;;;;;;;4.95;2.58;;;23.80;99.90;;;;;;7346530;19;109102;-82
2022/05/17 10:22:26;;;;;;;4.88;2.22;;;24.10;99.90;;;;;;7346409;19;108303;-82
2022/05/17 10:25:10;;;;;;;4.63;1.48;;;24.20;99.90;;;;;;7344325;19;108517;-81
2022/05/17 10:27:38;;;;;;;3.90;1.80;;;24.30;99.90;;;;;;7350430;19;108886;-81
2022/05/17 10:30:14;;;;;;;7.72;1.65;;;24.30;99.90;;;;;;7346611;19;108529;-81
2022/05/17 10:33:06;;;;;;;8.32;2.35;;;24.50;99.90;;;;;;7346188;19;108190;-82
2022/05/17 10:35:42;;;;;;;5.40;1.95;;;24.60;99.90;;;;;;7345457;19;107727;-81
2022/05/17 10:38:11;;;;;;;7.47;2.30;;;24.80;99.90;;;;;;7346854;19;107778;-82
2022/05/17 10:40:46;;;;;;;8.45;2.85;;;25.00;99.90;;;;;;7342685;19;107863;-81
2022/05/17 10:43:17;;;;;;;4.80;2.67;;;25.10;99.90;;;;;;7346014;19;108759;-82
2022/05/17 10:45:50;;;;;;;10.25;2.20;;;25.30;99.30;;;;;;7344842;19;108144;-82
2022/05/17 10:48:22;;;;;;;7.65;2.65;;;25.40;98.80;;;;;;7343462;19;107903;-82
2022/05/17 10:51:11;;;;;;;8.60;2.97;;;25.40;98.30;;;;;;7352028;19;108036;-81
2022/05/17 10:53:43;;;;;;;6.88;3.00;;;25.60;98.00;;;;;;7347340;19;109232;-81
2022/05/17 10:56:25;;;;;;;6.68;3.20;;;25.80;97.80;;;;;;7346057;19;108265;-81
2022/05/17 10:59:04;;;;;;;6.22;3.28;;;25.90;98.00;;;;;;7345541;19;107371;-82
2022/05/17 11:01:37;;;;;;;8.15;3.38;;;26.00;98.20;;;;;;7344744;19;110086;-82
2022/05/17 11:04:21;;;;;;;7.63;2.83;;;26.20;97.50;;;;;;7345340;19;107807;-82
2022/05/17 11:07:25;;;;;;;8.90;3.28;;;26.40;97.90;;;;;;7345604;19;108509;-81
2022/05/17 11:10:10;;;;;;;6.60;3.67;;;26.40;96.40;;;;;;7343565;19;109145;-81
2022/05/17 11:12:48;;;;;;;7.47;3.95;;;26.40;96.30;;;;;;7348715;19;108073;-82
2022/05/17 11:15:23;;;;;;;6.55;3.83;;;26.30;96.50;;;;;;7345293;19;109443;-84
2022/05/17 11:18:04;;;;;;;5.82;4.10;;;26.40;96.10;;;;;;7340433;19;107677;-80
2022/05/17 11:21:01;;;;;;;7.13;4.07;;;26.60;96.00;;;;;;7345384;19;108645;-82
2022/05/17 11:23:41;;;;;;;9.43;4.10;;;26.80;96.30;;;;;;7342554;19;109330;-82
2022/05/17 11:26:29;;;;;;;10.00;4.43;;;26.80;95.40;;;;;;7344542;19;108139;-82
2022/05/17 11:29:15;;;;;;;10.40;3.70;;;26.90;95.50;;;;;;7341360;19;107673;-83
2022/05/17 11:31:57;;;;;;;6.78;3.90;;;27.10;96.10;;;;;;7342665;19;109279;-82
2022/05/17 11:34:31;;;;;;;8.27;4.22;;;27.30;95.20;;;;;;7343343;19;107840;-81
2022/05/17 11:37:04;;;;;;;6.28;3.85;;;27.40;95.70;;;;;;7349184;19;107583;-81
2022/05/17 11:39:31;;;;;;;6.93;4.28;;;27.60;95.20;;;;;;7342647;19;107932;-82
2022/05/17 11:42:25;;;;;;;10.48;4.05;;;27.50;94.90;;;;;;7344212;19;108874;-81
2022/05/17 11:44:52;;;;;;;8.95;4.13;;;27.60;94.20;;;;;;7343313;19;108222;-82
2022/05/17 11:47:52;;;;;;;9.68;4.20;;;27.60;94.90;;;;;;7343192;19;108183;-81
2022/05/17 11:50:39;;;;;;;5.85;3.70;;;27.80;94.20;;;;;;7344021;19;108116;-82
2022/05/17 11:53:24;;;;;;;9.07;3.90;;;27.90;93.50;;;;;;7342278;19;109334;-82
2022/05/17 11:56:10;;;;;;;10.27;3.72;;;27.90;93.30;;;;;;7343741;19;107885;-82
2022/05/17 11:58:37;;;;;;;13.30;3.60;;;28.00;93.20;;;;;;7338421;19;108400;-82
2022/05/17 12:01:27;;;;;;;6.07;3.75;;;28.00;93.70;;;;;;7348729;19;108684;-82
2022/05/17 12:04:01;;;;;;;9.00;3.50;;;28.10;92.80;;;;;;7343205;19;107824;-82
2022/05/17 12:06:36;;;;;;;11.18;3.65;;;28.20;92.90;;;;;;7343257;19;109015;-82
2022/05/17 12:09:24;;;;;;;8.25;2.90;;;28.30;92.30;;;;;;7339089;19;108442;-83
2022/05/17 12:12:27;;;;;;;10.63;3.38;;;28.40;93.40;;;;;;7339888;19;107187;-82
2022/05/17 12:15:19;;;;;;;11.27;3.17;;;28.60;92.60;;;;;;7340846;19;109218;-82
2022/05/17 12:17:54;;;;;;;6.80;2.95;;;28.90;93.60;;;;;;7340509;19;108673;-82
2022/05/17 12:20:40;;;;;;;12.05;3.15;;;29.00;91.60;;;;;;7339938;19;108954;-81
2022/05/17 12:23:21;;;;;;;7.07;3.03;;;29.00;91.20;;;;;;7343264;19;107901;-82
2022/05/17 12:26:21;;;;;;;4.93;2.80;;;29.00;90.00;;;;;;7346751;19;108254;-82
2022/05/17 12:28:52;;;;;;;15.45;3.30;;;28.90;90.60;;;;;;7339567;19;108712;-82
2022/05/17 12:31:26;;;;;;;19.13;3.85;;;29.10;91.50;;;;;;7343301;19;108181;-83
2022/05/17 12:33:55;;;;;;;11.05;3.05;;;29.40;91.40;;;;;;7341501;19;107604;-82
2022/05/17 12:36:28;;;;;;;39.08;5.10;;;29.50;91.10;;;;;;7340100;19;108417;-83
2022/05/17 12:45:01;;;;;;;5.30;2.80;;;29.90;89.10;;;;;;7342927;19;108669;-83
2022/05/17 12:47:43;;;;;;;5.90;2.67;;;30.00;89.30;;;;;;7338989;19;108228;-82
2022/05/17 12:50:17;;;;;;;6.38;2.45;;;30.10;87.30;;;;;;7347369;19;107448;-81
2022/05/17 12:52:46;;;;;;;8.32;2.72;;;30.00;87.90;;;;;;7340261;19;108242;-82
2022/05/17 12:55:24;;;;;;;5.22;2.45;;;30.10;87.00;;;;;;7341569;19;108192;-82
2022/05/17 12:57:52;;;;;;;9.90;2.22;;;30.00;88.80;;;;;;7339324;19;109209;-83
2022/05/17 13:00:31;;;;;;;8.07;2.72;;;30.00;87.40;;;;;;7340835;19;107427;-82
2022/05/17 13:03:18;;;;;;;8.82;2.47;;;30.20;88.40;;;;;;7340641;19;108031;-83
2022/05/17 13:05:49;;;;;;;11.93;2.70;;;30.50;87.60;;;;;;7341328;19;108917;-82
2022/05/17 13:08:36;;;;;;;5.30;2.35;;;30.70;86.30;;;;;;7339267;19;107992;-82
2022/05/17 13:11:23;;;;;;;3.33;2.30;;;30.90;84.50;;;;;;7341043;19;108582;-82
2022/05/17 13:14:05;;;;;;;9.75;2.30;;;31.00;83.60;;;;;;7345574;19;109571;-82
2022/05/17 13:16:36;;;;;;;6.18;2.00;;;31.20;85.70;;;;;;7335488;19;108215;-82
2022/05/17 13:19:07;;;;;;;6.05;1.95;;;31.40;82.00;;;;;;7338552;19;109095;-82